sensor_id;sensor_type;location;lat;lon;timestamp;P1;durP1;ratioP1;P2;durP2;ratioP2
66095;SDS011;53861;53.422;14.530;2023-03-11T00:01:51;65.03;;;20.90;;
66095;SDS011;53861;53.422;14.530;2023-03-11T00:04:20;72.38;;;24.30;;
66095;SDS011;53861;53.422;14.530;2023-03-11T00:06:47;67.88;;;22.23;;
66095;SDS011;53861;53.422;14.530;2023-03-11T00:09:15;62.88;;;20.15;;
66095;SDS011;53861;53.422;14.530;2023-03-11T00:11:42;64.35;;;22.48;;
66095;SDS011;53861;53.422;14.530;2023-03-11T00:14:11;66.70;;;22.77;;
66095;SDS011;53861;53.422;14.530;2023-03-11T00:16:38;62.42;;;20.85;;
66095;SDS011;53861;53.422;14.530;2023-03-11T00:19:05;56.13;;;19.73;;
66095;SDS011;53861;53.422;14.530;2023-03-11T00:21:35;57.33;;;20.40;;
66095;SDS011;53861;53.422;14.530;2023-03-11T00:24:02;54.20;;;19.77;;
66095;SDS011;53861;53.422;14.530;2023-03-11T00:26:33;56.50;;;20.33;;
66095;SDS011;53861;53.422;14.530;2023-03-11T00:29:03;53.03;;;18.30;;
66095;SDS011;53861;53.422;14.530;2023-03-11T00:31:36;54.45;;;18.40;;
66095;SDS011;53861;53.422;14.530;2023-03-11T00:34:06;54.05;;;19.17;;
66095;SDS011;53861;53.422;14.530;2023-03-11T00:36:33;58.67;;;20.25;;
66095;SDS011;53861;53.422;14.530;2023-03-11T00:39:01;64.18;;;21.20;;
66095;SDS011;53861;53.422;14.530;2023-03-11T00:41:31;50.33;;;17.48;;
66095;SDS011;53861;53.422;14.530;2023-03-11T00:44:01;46.22;;;16.95;;
66095;SDS011;53861;53.422;14.530;2023-03-11T00:46:30;45.17;;;15.45;;
66095;SDS011;53861;53.422;14.530;2023-03-11T00:48:59;50.22;;;17.23;;
66095;SDS011;53861;53.422;14.530;2023-03-11T00:51:26;47.33;;;17.58;;
66095;SDS011;53861;53.422;14.530;2023-03-11T00:53:56;34.05;;;13.77;;
66095;SDS011;53861;53.422;14.530;2023-03-11T00:56:25;42.25;;;14.70;;
66095;SDS011;53861;53.422;14.530;2023-03-11T00:58:53;40.03;;;14.98;;
66095;SDS011;53861;53.422;14.530;2023-03-11T01:01:20;38.08;;;14.77;;
66095;SDS011;53861;53.422;14.530;2023-03-11T01:03:48;40.15;;;14.63;;
66095;SDS011;53861;53.422;14.530;2023-03-11T01:06:17;37.28;;;13.85;;
66095;SDS011;53861;53.422;14.530;2023-03-11T01:08:44;43.83;;;16.63;;
66095;SDS011;53861;53.422;14.530;2023-03-11T01:11:12;37.95;;;13.50;;
66095;SDS011;53861;53.422;14.530;2023-03-11T01:13:39;38.55;;;14.20;;
66095;SDS011;53861;53.422;14.530;2023-03-11T01:16:07;34.72;;;13.23;;
66095;SDS011;53861;53.422;14.530;2023-03-11T01:18:35;37.38;;;13.88;;
66095;SDS011;53861;53.422;14.530;2023-03-11T01:21:02;33.15;;;13.13;;
66095;SDS011;53861;53.422;14.530;2023-03-11T01:23:32;28.15;;;11.60;;
66095;SDS011;53861;53.422;14.530;2023-03-11T01:25:59;27.10;;;11.75;;
66095;SDS011;53861;53.422;14.530;2023-03-11T01:28:29;37.17;;;13.75;;
66095;SDS011;53861;53.422;14.530;2023-03-11T01:30:56;32.03;;;12.93;;
66095;SDS011;53861;53.422;14.530;2023-03-11T01:33:24;27.58;;;11.43;;
66095;SDS011;53861;53.422;14.530;2023-03-11T01:35:51;29.98;;;11.88;;
66095;SDS011;53861;53.422;14.530;2023-03-11T01:38:18;30.45;;;12.65;;
66095;SDS011;53861;53.422;14.530;2023-03-11T01:40:50;27.15;;;11.65;;
66095;SDS011;53861;53.422;14.530;2023-03-11T01:43:37;22.50;;;9.43;;
66095;SDS011;53861;53.422;14.530;2023-03-11T01:46:13;23.98;;;10.32;;
66095;SDS011;53861;53.422;14.530;2023-03-11T01:48:51;31.17;;;12.13;;
66095;SDS011;53861;53.422;14.530;2023-03-11T01:51:21;35.60;;;13.88;;
66095;SDS011;53861;53.422;14.530;2023-03-11T01:53:51;42.80;;;14.85;;
66095;SDS011;53861;53.422;14.530;2023-03-11T01:56:22;48.28;;;18.45;;
66095;SDS011;53861;53.422;14.530;2023-03-11T01:58:50;61.25;;;19.88;;
66095;SDS011;53861;53.422;14.530;2023-03-11T02:01:19;52.45;;;18.35;;
66095;SDS011;53861;53.422;14.530;2023-03-11T02:03:48;57.42;;;20.35;;
66095;SDS011;53861;53.422;14.530;2023-03-11T02:06:16;73.32;;;22.77;;
66095;SDS011;53861;53.422;14.530;2023-03-11T02:08:50;65.45;;;21.20;;
66095;SDS011;53861;53.422;14.530;2023-03-11T02:11:19;71.05;;;22.02;;
66095;SDS011;53861;53.422;14.530;2023-03-11T02:13:51;56.38;;;18.42;;
66095;SDS011;53861;53.422;14.530;2023-03-11T02:16:22;47.55;;;16.27;;
66095;SDS011;53861;53.422;14.530;2023-03-11T02:18:49;40.55;;;15.05;;
66095;SDS011;53861;53.422;14.530;2023-03-11T02:21:20;38.70;;;13.95;;
66095;SDS011;53861;53.422;14.530;2023-03-11T02:23:54;25.27;;;9.73;;
66095;SDS011;53861;53.422;14.530;2023-03-11T02:26:28;20.52;;;7.90;;
66095;SDS011;53861;53.422;14.530;2023-03-11T02:29:02;22.35;;;8.27;;
66095;SDS011;53861;53.422;14.530;2023-03-11T02:31:33;18.50;;;7.82;;
66095;SDS011;53861;53.422;14.530;2023-03-11T02:34:02;17.75;;;7.40;;
66095;SDS011;53861;53.422;14.530;2023-03-11T02:39:03;13.10;;;5.60;;
66095;SDS011;53861;53.422;14.530;2023-03-11T02:41:33;14.50;;;6.50;;
66095;SDS011;53861;53.422;14.530;2023-03-11T02:44:07;13.98;;;6.22;;
66095;SDS011;53861;53.422;14.530;2023-03-11T02:46:40;10.15;;;4.32;;
66095;SDS011;53861;53.422;14.530;2023-03-11T02:49:11;9.50;;;4.57;;
66095;SDS011;53861;53.422;14.530;2023-03-11T02:51:40;14.07;;;5.43;;
66095;SDS011;53861;53.422;14.530;2023-03-11T02:54:07;15.52;;;5.43;;
66095;SDS011;53861;53.422;14.530;2023-03-11T02:56:35;11.00;;;4.63;;
66095;SDS011;53861;53.422;14.530;2023-03-11T02:59:05;5.63;;;2.95;;
66095;SDS011;53861;53.422;14.530;2023-03-11T03:01:34;10.02;;;4.50;;
66095;SDS011;53861;53.422;14.530;2023-03-11T03:04:01;9.35;;;4.13;;
66095;SDS011;53861;53.422;14.530;2023-03-11T03:06:29;8.27;;;3.55;;
66095;SDS011;53861;53.422;14.530;2023-03-11T03:08:56;9.93;;;4.68;;
66095;SDS011;53861;53.422;14.530;2023-03-11T03:11:25;8.77;;;4.03;;
66095;SDS011;53861;53.422;14.530;2023-03-11T03:13:54;7.93;;;3.58;;
66095;SDS011;53861;53.422;14.530;2023-03-11T03:16:23;4.47;;;2.45;;
66095;SDS011;53861;53.422;14.530;2023-03-11T03:18:51;8.68;;;3.80;;
66095;SDS011;53861;53.422;14.530;2023-03-11T03:21:20;9.10;;;4.05;;
66095;SDS011;53861;53.422;14.530;2023-03-11T03:23:49;8.15;;;4.07;;
66095;SDS011;53861;53.422;14.530;2023-03-11T03:26:16;8.27;;;4.10;;
66095;SDS011;53861;53.422;14.530;2023-03-11T03:28:44;8.48;;;2.88;;
66095;SDS011;53861;53.422;14.530;2023-03-11T03:31:11;5.30;;;2.70;;
66095;SDS011;53861;53.422;14.530;2023-03-11T03:33:41;11.00;;;4.20;;
66095;SDS011;53861;53.422;14.530;2023-03-11T03:36:12;7.63;;;3.83;;
66095;SDS011;53861;53.422;14.530;2023-03-11T03:38:41;6.77;;;3.63;;
66095;SDS011;53861;53.422;14.530;2023-03-11T03:41:11;9.82;;;3.90;;
66095;SDS011;53861;53.422;14.530;2023-03-11T03:43:39;8.23;;;3.45;;
66095;SDS011;53861;53.422;14.530;2023-03-11T03:46:06;8.63;;;3.90;;
66095;SDS011;53861;53.422;14.530;2023-03-11T03:48:36;8.40;;;3.88;;
66095;SDS011;53861;53.422;14.530;2023-03-11T03:51:06;10.15;;;4.63;;
66095;SDS011;53861;53.422;14.530;2023-03-11T03:53:35;10.20;;;4.88;;
66095;SDS011;53861;53.422;14.530;2023-03-11T03:56:03;8.75;;;4.35;;
66095;SDS011;53861;53.422;14.530;2023-03-11T03:58:31;7.90;;;3.90;;
66095;SDS011;53861;53.422;14.530;2023-03-11T04:01:01;10.40;;;4.40;;
66095;SDS011;53861;53.422;14.530;2023-03-11T04:03:30;8.40;;;4.20;;
66095;SDS011;53861;53.422;14.530;2023-03-11T04:06:05;9.40;;;4.45;;
66095;SDS011;53861;53.422;14.530;2023-03-11T04:08:33;8.70;;;3.83;;
66095;SDS011;53861;53.422;14.530;2023-03-11T04:11:01;5.53;;;2.65;;
66095;SDS011;53861;53.422;14.530;2023-03-11T04:13:29;14.18;;;4.88;;
66095;SDS011;53861;53.422;14.530;2023-03-11T04:15:56;10.23;;;4.20;;
66095;SDS011;53861;53.422;14.530;2023-03-11T04:18:32;7.00;;;3.67;;
66095;SDS011;53861;53.422;14.530;2023-03-11T04:20:59;8.68;;;3.70;;
66095;SDS011;53861;53.422;14.530;2023-03-11T04:23:37;5.65;;;3.13;;
66095;SDS011;53861;53.422;14.530;2023-03-11T04:26:04;10.70;;;4.50;;
66095;SDS011;53861;53.422;14.530;2023-03-11T04:28:32;9.73;;;4.68;;
66095;SDS011;53861;53.422;14.530;2023-03-11T04:30:59;9.50;;;4.15;;
66095;SDS011;53861;53.422;14.530;2023-03-11T04:33:27;6.72;;;2.85;;
66095;SDS011;53861;53.422;14.530;2023-03-11T04:35:54;9.25;;;3.22;;
66095;SDS011;53861;53.422;14.530;2023-03-11T04:38:23;8.45;;;4.05;;
66095;SDS011;53861;53.422;14.530;2023-03-11T04:41:01;8.93;;;3.80;;
66095;SDS011;53861;53.422;14.530;2023-03-11T04:43:28;10.95;;;4.47;;
66095;SDS011;53861;53.422;14.530;2023-03-11T04:45:56;13.00;;;5.05;;
66095;SDS011;53861;53.422;14.530;2023-03-11T04:48:23;8.27;;;3.75;;
66095;SDS011;53861;53.422;14.530;2023-03-11T04:50:54;9.13;;;3.67;;
66095;SDS011;53861;53.422;14.530;2023-03-11T04:53:21;7.82;;;3.20;;
66095;SDS011;53861;53.422;14.530;2023-03-11T04:55:50;7.95;;;3.65;;
66095;SDS011;53861;53.422;14.530;2023-03-11T04:58:18;12.73;;;4.20;;
66095;SDS011;53861;53.422;14.530;2023-03-11T05:00:46;7.65;;;3.63;;
66095;SDS011;53861;53.422;14.530;2023-03-11T05:03:13;6.53;;;3.25;;
66095;SDS011;53861;53.422;14.530;2023-03-11T05:05:41;10.50;;;3.70;;
66095;SDS011;53861;53.422;14.530;2023-03-11T05:08:08;6.15;;;3.20;;
66095;SDS011;53861;53.422;14.530;2023-03-11T05:10:41;9.48;;;3.83;;
66095;SDS011;53861;53.422;14.530;2023-03-11T05:13:11;7.45;;;3.55;;
66095;SDS011;53861;53.422;14.530;2023-03-11T05:15:39;7.35;;;3.58;;
66095;SDS011;53861;53.422;14.530;2023-03-11T05:18:10;6.70;;;3.53;;
66095;SDS011;53861;53.422;14.530;2023-03-11T05:20:37;10.43;;;4.25;;
66095;SDS011;53861;53.422;14.530;2023-03-11T05:23:05;14.05;;;4.63;;
66095;SDS011;53861;53.422;14.530;2023-03-11T05:25:32;9.65;;;4.15;;
66095;SDS011;53861;53.422;14.530;2023-03-11T05:28:00;9.63;;;4.03;;
66095;SDS011;53861;53.422;14.530;2023-03-11T05:30:30;9.68;;;4.40;;
66095;SDS011;53861;53.422;14.530;2023-03-11T05:32:57;10.77;;;4.22;;
66095;SDS011;53861;53.422;14.530;2023-03-11T05:35:25;7.03;;;3.13;;
66095;SDS011;53861;53.422;14.530;2023-03-11T05:37:52;7.60;;;3.10;;
66095;SDS011;53861;53.422;14.530;2023-03-11T05:40:20;6.00;;;2.47;;
66095;SDS011;53861;53.422;14.530;2023-03-11T05:42:50;9.50;;;3.95;;
66095;SDS011;53861;53.422;14.530;2023-03-11T05:45:18;10.55;;;4.10;;
66095;SDS011;53861;53.422;14.530;2023-03-11T05:47:50;7.60;;;3.42;;
66095;SDS011;53861;53.422;14.530;2023-03-11T05:50:19;7.18;;;3.47;;
66095;SDS011;53861;53.422;14.530;2023-03-11T05:52:46;8.25;;;3.78;;
66095;SDS011;53861;53.422;14.530;2023-03-11T05:55:14;11.25;;;3.22;;
66095;SDS011;53861;53.422;14.530;2023-03-11T05:57:41;7.43;;;3.45;;
66095;SDS011;53861;53.422;14.530;2023-03-11T06:00:12;9.00;;;3.70;;
66095;SDS011;53861;53.422;14.530;2023-03-11T06:02:40;6.30;;;2.97;;
66095;SDS011;53861;53.422;14.530;2023-03-11T06:05:15;8.70;;;3.45;;
66095;SDS011;53861;53.422;14.530;2023-03-11T06:07:43;12.00;;;3.42;;
66095;SDS011;53861;53.422;14.530;2023-03-11T06:10:12;8.85;;;3.45;;
66095;SDS011;53861;53.422;14.530;2023-03-11T06:12:41;7.75;;;3.03;;
66095;SDS011;53861;53.422;14.530;2023-03-11T06:15:09;12.27;;;3.90;;
66095;SDS011;53861;53.422;14.530;2023-03-11T06:17:36;11.50;;;3.00;;
66095;SDS011;53861;53.422;14.530;2023-03-11T06:20:06;6.70;;;3.10;;
66095;SDS011;53861;53.422;14.530;2023-03-11T06:22:35;11.32;;;2.97;;
66095;SDS011;53861;53.422;14.530;2023-03-11T06:25:05;9.93;;;3.47;;
66095;SDS011;53861;53.422;14.530;2023-03-11T06:27:36;7.07;;;2.78;;
66095;SDS011;53861;53.422;14.530;2023-03-11T06:30:15;11.82;;;3.83;;
66095;SDS011;53861;53.422;14.530;2023-03-11T06:32:43;12.73;;;3.70;;
66095;SDS011;53861;53.422;14.530;2023-03-11T06:37:49;8.13;;;3.30;;
66095;SDS011;53861;53.422;14.530;2023-03-11T06:40:20;7.60;;;3.70;;
66095;SDS011;53861;53.422;14.530;2023-03-11T06:42:50;10.80;;;4.10;;
66095;SDS011;53861;53.422;14.530;2023-03-11T06:45:19;9.55;;;3.47;;
66095;SDS011;53861;53.422;14.530;2023-03-11T06:47:50;12.07;;;4.28;;
66095;SDS011;53861;53.422;14.530;2023-03-11T06:50:21;7.93;;;3.05;;
66095;SDS011;53861;53.422;14.530;2023-03-11T06:52:51;8.52;;;3.90;;
66095;SDS011;53861;53.422;14.530;2023-03-11T06:55:21;11.45;;;3.78;;
66095;SDS011;53861;53.422;14.530;2023-03-11T06:57:50;13.02;;;3.85;;
66095;SDS011;53861;53.422;14.530;2023-03-11T07:00:20;13.25;;;3.85;;
66095;SDS011;53861;53.422;14.530;2023-03-11T07:02:50;7.72;;;3.50;;
66095;SDS011;53861;53.422;14.530;2023-03-11T07:05:29;9.18;;;3.33;;
66095;SDS011;53861;53.422;14.530;2023-03-11T07:07:59;10.38;;;4.03;;
66095;SDS011;53861;53.422;14.530;2023-03-11T07:10:33;10.13;;;4.75;;
66095;SDS011;53861;53.422;14.530;2023-03-11T07:13:02;10.63;;;4.50;;
66095;SDS011;53861;53.422;14.530;2023-03-11T07:15:32;12.35;;;3.50;;
66095;SDS011;53861;53.422;14.530;2023-03-11T07:18:01;10.50;;;3.97;;
66095;SDS011;53861;53.422;14.530;2023-03-11T07:20:33;9.95;;;4.15;;
66095;SDS011;53861;53.422;14.530;2023-03-11T07:23:07;10.45;;;4.03;;
66095;SDS011;53861;53.422;14.530;2023-03-11T07:25:36;9.65;;;4.03;;
66095;SDS011;53861;53.422;14.530;2023-03-11T07:28:04;12.73;;;4.32;;
66095;SDS011;53861;53.422;14.530;2023-03-11T07:30:32;11.20;;;4.05;;
66095;SDS011;53861;53.422;14.530;2023-03-11T07:33:04;14.38;;;4.43;;
66095;SDS011;53861;53.422;14.530;2023-03-11T07:35:35;9.77;;;4.85;;
66095;SDS011;53861;53.422;14.530;2023-03-11T07:38:04;9.10;;;3.58;;
66095;SDS011;53861;53.422;14.530;2023-03-11T07:40:36;13.23;;;4.38;;
66095;SDS011;53861;53.422;14.530;2023-03-11T07:43:05;6.35;;;2.88;;
66095;SDS011;53861;53.422;14.530;2023-03-11T07:45:33;11.32;;;3.72;;
66095;SDS011;53861;53.422;14.530;2023-03-11T07:48:04;10.93;;;4.25;;
66095;SDS011;53861;53.422;14.530;2023-03-11T07:50:38;10.20;;;4.25;;
66095;SDS011;53861;53.422;14.530;2023-03-11T07:53:08;10.10;;;3.88;;
66095;SDS011;53861;53.422;14.530;2023-03-11T07:55:38;8.20;;;3.70;;
66095;SDS011;53861;53.422;14.530;2023-03-11T07:58:06;10.30;;;3.70;;
66095;SDS011;53861;53.422;14.530;2023-03-11T08:00:38;12.32;;;3.88;;
66095;SDS011;53861;53.422;14.530;2023-03-11T08:03:06;11.00;;;3.88;;
66095;SDS011;53861;53.422;14.530;2023-03-11T08:05:35;12.10;;;4.55;;
66095;SDS011;53861;53.422;14.530;2023-03-11T08:08:06;9.43;;;3.90;;
66095;SDS011;53861;53.422;14.530;2023-03-11T08:10:35;9.88;;;4.10;;
66095;SDS011;53861;53.422;14.530;2023-03-11T08:13:02;12.93;;;4.80;;
66095;SDS011;53861;53.422;14.530;2023-03-11T08:15:33;12.10;;;5.00;;
66095;SDS011;53861;53.422;14.530;2023-03-11T08:18:03;13.45;;;4.90;;
66095;SDS011;53861;53.422;14.530;2023-03-11T08:20:33;9.50;;;4.47;;
66095;SDS011;53861;53.422;14.530;2023-03-11T08:23:06;12.60;;;5.13;;
66095;SDS011;53861;53.422;14.530;2023-03-11T08:25:37;10.38;;;3.65;;
66095;SDS011;53861;53.422;14.530;2023-03-11T08:28:10;9.48;;;3.03;;
66095;SDS011;53861;53.422;14.530;2023-03-11T08:30:45;13.02;;;5.80;;
66095;SDS011;53861;53.422;14.530;2023-03-11T08:33:13;12.05;;;5.25;;
66095;SDS011;53861;53.422;14.530;2023-03-11T08:35:43;12.27;;;4.85;;
66095;SDS011;53861;53.422;14.530;2023-03-11T08:38:12;12.52;;;5.07;;
66095;SDS011;53861;53.422;14.530;2023-03-11T08:40:42;14.55;;;4.80;;
66095;SDS011;53861;53.422;14.530;2023-03-11T08:43:11;12.35;;;4.88;;
66095;SDS011;53861;53.422;14.530;2023-03-11T08:45:39;12.15;;;5.13;;
66095;SDS011;53861;53.422;14.530;2023-03-11T08:48:14;13.43;;;5.15;;
66095;SDS011;53861;53.422;14.530;2023-03-11T08:50:45;13.90;;;5.35;;
66095;SDS011;53861;53.422;14.530;2023-03-11T08:53:20;10.30;;;3.97;;
66095;SDS011;53861;53.422;14.530;2023-03-11T08:55:48;11.50;;;4.32;;
66095;SDS011;53861;53.422;14.530;2023-03-11T08:58:15;13.05;;;4.82;;
66095;SDS011;53861;53.422;14.530;2023-03-11T09:00:43;15.82;;;5.35;;
66095;SDS011;53861;53.422;14.530;2023-03-11T09:03:10;12.32;;;4.55;;
66095;SDS011;53861;53.422;14.530;2023-03-11T09:05:41;11.02;;;4.53;;
66095;SDS011;53861;53.422;14.530;2023-03-11T09:08:09;10.82;;;4.07;;
66095;SDS011;53861;53.422;14.530;2023-03-11T09:10:38;8.98;;;3.80;;
66095;SDS011;53861;53.422;14.530;2023-03-11T09:13:05;10.23;;;4.25;;
66095;SDS011;53861;53.422;14.530;2023-03-11T09:15:33;9.45;;;4.25;;
66095;SDS011;53861;53.422;14.530;2023-03-11T09:18:04;8.88;;;4.43;;
66095;SDS011;53861;53.422;14.530;2023-03-11T09:20:35;10.93;;;4.85;;
66095;SDS011;53861;53.422;14.530;2023-03-11T09:23:04;9.55;;;4.22;;
66095;SDS011;53861;53.422;14.530;2023-03-11T09:25:31;14.73;;;5.15;;
66095;SDS011;53861;53.422;14.530;2023-03-11T09:28:00;8.27;;;4.05;;
66095;SDS011;53861;53.422;14.530;2023-03-11T09:30:27;8.43;;;4.20;;
66095;SDS011;53861;53.422;14.530;2023-03-11T09:32:54;8.45;;;4.32;;
66095;SDS011;53861;53.422;14.530;2023-03-11T09:35:22;9.05;;;4.20;;
66095;SDS011;53861;53.422;14.530;2023-03-11T09:37:50;9.40;;;4.20;;
66095;SDS011;53861;53.422;14.530;2023-03-11T09:40:20;8.98;;;4.47;;
66095;SDS011;53861;53.422;14.530;2023-03-11T09:42:51;8.00;;;4.43;;
66095;SDS011;53861;53.422;14.530;2023-03-11T09:45:25;9.20;;;3.92;;
66095;SDS011;53861;53.422;14.530;2023-03-11T09:48:02;8.40;;;4.43;;
66095;SDS011;53861;53.422;14.530;2023-03-11T09:50:42;6.85;;;3.40;;
66095;SDS011;53861;53.422;14.530;2023-03-11T09:53:21;11.52;;;4.10;;
66095;SDS011;53861;53.422;14.530;2023-03-11T09:55:58;9.60;;;4.00;;
66095;SDS011;53861;53.422;14.530;2023-03-11T09:58:36;7.25;;;3.80;;
66095;SDS011;53861;53.422;14.530;2023-03-11T10:01:19;11.45;;;4.07;;
66095;SDS011;53861;53.422;14.530;2023-03-11T10:03:51;8.52;;;4.13;;
66095;SDS011;53861;53.422;14.530;2023-03-11T10:06:23;7.93;;;4.07;;
66095;SDS011;53861;53.422;14.530;2023-03-11T10:08:54;8.32;;;3.63;;
66095;SDS011;53861;53.422;14.530;2023-03-11T10:11:50;10.13;;;4.20;;
66095;SDS011;53861;53.422;14.530;2023-03-11T10:17:25;9.13;;;4.38;;
66095;SDS011;53861;53.422;14.530;2023-03-11T10:20:08;7.05;;;3.47;;
66095;SDS011;53861;53.422;14.530;2023-03-11T10:22:44;8.65;;;3.78;;
66095;SDS011;53861;53.422;14.530;2023-03-11T10:25:23;7.82;;;3.83;;
66095;SDS011;53861;53.422;14.530;2023-03-11T10:28:03;9.85;;;3.97;;
66095;SDS011;53861;53.422;14.530;2023-03-11T10:30:36;9.43;;;3.38;;
66095;SDS011;53861;53.422;14.530;2023-03-11T10:33:12;9.45;;;4.10;;
66095;SDS011;53861;53.422;14.530;2023-03-11T10:35:51;9.40;;;3.30;;
66095;SDS011;53861;53.422;14.530;2023-03-11T10:38:22;10.38;;;4.47;;
66095;SDS011;53861;53.422;14.530;2023-03-11T10:41:00;9.57;;;3.85;;
66095;SDS011;53861;53.422;14.530;2023-03-11T10:43:37;9.32;;;4.22;;
66095;SDS011;53861;53.422;14.530;2023-03-11T10:46:10;8.75;;;3.83;;
66095;SDS011;53861;53.422;14.530;2023-03-11T10:48:53;10.35;;;4.30;;
66095;SDS011;53861;53.422;14.530;2023-03-11T10:51:29;9.20;;;4.15;;
66095;SDS011;53861;53.422;14.530;2023-03-11T10:54:01;7.82;;;3.63;;
66095;SDS011;53861;53.422;14.530;2023-03-11T10:56:30;8.68;;;3.97;;
66095;SDS011;53861;53.422;14.530;2023-03-11T10:59:17;9.80;;;4.00;;
66095;SDS011;53861;53.422;14.530;2023-03-11T11:01:57;8.25;;;4.13;;
66095;SDS011;53861;53.422;14.530;2023-03-11T11:04:33;8.35;;;4.20;;
66095;SDS011;53861;53.422;14.530;2023-03-11T11:10:10;9.25;;;3.72;;
66095;SDS011;53861;53.422;14.530;2023-03-11T11:12:50;8.90;;;4.18;;
66095;SDS011;53861;53.422;14.530;2023-03-11T11:15:31;11.60;;;5.30;;
66095;SDS011;53861;53.422;14.530;2023-03-11T11:18:14;8.57;;;4.38;;
66095;SDS011;53861;53.422;14.530;2023-03-11T11:20:53;9.50;;;3.97;;
66095;SDS011;53861;53.422;14.530;2023-03-11T11:23:26;9.43;;;3.47;;
66095;SDS011;53861;53.422;14.530;2023-03-11T11:26:01;9.55;;;4.10;;
66095;SDS011;53861;53.422;14.530;2023-03-11T11:28:34;13.50;;;4.50;;
66095;SDS011;53861;53.422;14.530;2023-03-11T11:31:18;9.40;;;3.70;;
66095;SDS011;53861;53.422;14.530;2023-03-11T11:33:55;8.63;;;3.90;;
66095;SDS011;53861;53.422;14.530;2023-03-11T11:36:25;10.73;;;4.40;;
66095;SDS011;53861;53.422;14.530;2023-03-11T11:38:55;9.60;;;4.10;;
66095;SDS011;53861;53.422;14.530;2023-03-11T11:41:38;8.88;;;3.80;;
66095;SDS011;53861;53.422;14.530;2023-03-11T11:44:08;10.85;;;4.18;;
66095;SDS011;53861;53.422;14.530;2023-03-11T11:46:42;8.63;;;4.03;;
66095;SDS011;53861;53.422;14.530;2023-03-11T11:51:46;8.23;;;3.55;;
66095;SDS011;53861;53.422;14.530;2023-03-11T11:54:19;9.43;;;4.55;;
66095;SDS011;53861;53.422;14.530;2023-03-11T11:57:00;10.00;;;4.20;;
66095;SDS011;53861;53.422;14.530;2023-03-11T11:59:37;8.65;;;3.97;;
66095;SDS011;53861;53.422;14.530;2023-03-11T12:02:14;12.93;;;5.10;;
66095;SDS011;53861;53.422;14.530;2023-03-11T12:05:01;12.88;;;4.28;;
66095;SDS011;53861;53.422;14.530;2023-03-11T12:07:45;9.00;;;4.65;;
66095;SDS011;53861;53.422;14.530;2023-03-11T12:10:26;10.55;;;4.93;;
66095;SDS011;53861;53.422;14.530;2023-03-11T12:13:17;12.48;;;5.47;;
66095;SDS011;53861;53.422;14.530;2023-03-11T12:16:00;12.38;;;5.00;;
66095;SDS011;53861;53.422;14.530;2023-03-11T12:18:48;8.32;;;3.60;;
66095;SDS011;53861;53.422;14.530;2023-03-11T12:21:23;8.82;;;4.10;;
66095;SDS011;53861;53.422;14.530;2023-03-11T12:24:13;7.35;;;3.50;;
66095;SDS011;53861;53.422;14.530;2023-03-11T12:29:22;8.32;;;3.80;;
66095;SDS011;53861;53.422;14.530;2023-03-11T12:31:52;7.97;;;3.55;;
66095;SDS011;53861;53.422;14.530;2023-03-11T12:34:24;8.88;;;3.70;;
66095;SDS011;53861;53.422;14.530;2023-03-11T12:36:57;7.60;;;3.60;;
66095;SDS011;53861;53.422;14.530;2023-03-11T12:39:29;8.65;;;3.88;;
66095;SDS011;53861;53.422;14.530;2023-03-11T12:42:15;8.38;;;3.50;;
66095;SDS011;53861;53.422;14.530;2023-03-11T12:44:49;6.30;;;3.15;;
66095;SDS011;53861;53.422;14.530;2023-03-11T12:47:22;7.25;;;2.90;;
66095;SDS011;53861;53.422;14.530;2023-03-11T12:49:52;9.15;;;3.40;;
66095;SDS011;53861;53.422;14.530;2023-03-11T12:52:27;6.85;;;3.17;;
66095;SDS011;53861;53.422;14.530;2023-03-11T12:58:23;8.20;;;3.40;;
66095;SDS011;53861;53.422;14.530;2023-03-11T13:01:16;6.30;;;2.60;;
66095;SDS011;53861;53.422;14.530;2023-03-11T13:04:14;6.43;;;3.15;;
66095;SDS011;53861;53.422;14.530;2023-03-11T13:07:25;7.50;;;3.25;;
66095;SDS011;53861;53.422;14.530;2023-03-11T13:10:16;8.48;;;3.55;;
66095;SDS011;53861;53.422;14.530;2023-03-11T13:12:59;8.45;;;3.92;;
66095;SDS011;53861;53.422;14.530;2023-03-11T13:15:30;6.43;;;3.58;;
66095;SDS011;53861;53.422;14.530;2023-03-11T13:18:16;7.53;;;3.83;;
66095;SDS011;53861;53.422;14.530;2023-03-11T13:20:54;8.63;;;4.05;;
66095;SDS011;53861;53.422;14.530;2023-03-11T13:23:33;12.60;;;4.03;;
66095;SDS011;53861;53.422;14.530;2023-03-11T13:26:13;4.57;;;2.55;;
66095;SDS011;53861;53.422;14.530;2023-03-11T13:28:56;8.10;;;4.03;;
66095;SDS011;53861;53.422;14.530;2023-03-11T13:31:51;9.95;;;4.05;;
66095;SDS011;53861;53.422;14.530;2023-03-11T13:34:33;10.00;;;4.68;;
66095;SDS011;53861;53.422;14.530;2023-03-11T13:37:12;8.10;;;4.13;;
66095;SDS011;53861;53.422;14.530;2023-03-11T13:39:52;9.00;;;4.38;;
66095;SDS011;53861;53.422;14.530;2023-03-11T13:42:41;7.72;;;3.65;;
66095;SDS011;53861;53.422;14.530;2023-03-11T13:45:18;7.47;;;4.00;;
66095;SDS011;53861;53.422;14.530;2023-03-11T13:47:55;6.07;;;3.17;;
66095;SDS011;53861;53.422;14.530;2023-03-11T13:50:28;8.23;;;4.32;;
66095;SDS011;53861;53.422;14.530;2023-03-11T13:53:16;8.95;;;4.68;;
66095;SDS011;53861;53.422;14.530;2023-03-11T13:55:48;12.60;;;4.40;;
66095;SDS011;53861;53.422;14.530;2023-03-11T13:58:18;11.18;;;4.90;;
66095;SDS011;53861;53.422;14.530;2023-03-11T14:00:52;10.40;;;4.75;;
66095;SDS011;53861;53.422;14.530;2023-03-11T14:03:41;11.13;;;4.38;;
66095;SDS011;53861;53.422;14.530;2023-03-11T14:06:12;10.38;;;4.50;;
66095;SDS011;53861;53.422;14.530;2023-03-11T14:08:51;9.82;;;4.45;;
66095;SDS011;53861;53.422;14.530;2023-03-11T14:11:24;10.48;;;5.57;;
66095;SDS011;53861;53.422;14.530;2023-03-11T14:14:24;11.52;;;5.20;;
66095;SDS011;53861;53.422;14.530;2023-03-11T14:17:03;12.15;;;5.35;;
66095;SDS011;53861;53.422;14.530;2023-03-11T14:19:44;10.68;;;5.03;;
66095;SDS011;53861;53.422;14.530;2023-03-11T14:22:39;12.40;;;5.72;;
66095;SDS011;53861;53.422;14.530;2023-03-11T14:25:15;13.35;;;5.80;;
66095;SDS011;53861;53.422;14.530;2023-03-11T14:27:49;10.70;;;5.15;;
66095;SDS011;53861;53.422;14.530;2023-03-11T14:30:22;11.32;;;5.70;;
66095;SDS011;53861;53.422;14.530;2023-03-11T14:32:59;8.75;;;4.30;;
66095;SDS011;53861;53.422;14.530;2023-03-11T14:35:31;14.52;;;5.47;;
66095;SDS011;53861;53.422;14.530;2023-03-11T14:38:01;10.65;;;4.50;;
66095;SDS011;53861;53.422;14.530;2023-03-11T14:40:32;10.38;;;4.45;;
66095;SDS011;53861;53.422;14.530;2023-03-11T14:43:04;10.02;;;4.97;;
66095;SDS011;53861;53.422;14.530;2023-03-11T14:45:46;8.20;;;4.17;;
66095;SDS011;53861;53.422;14.530;2023-03-11T14:48:18;11.52;;;4.85;;
66095;SDS011;53861;53.422;14.530;2023-03-11T14:50:50;10.50;;;4.75;;
66095;SDS011;53861;53.422;14.530;2023-03-11T14:53:37;11.40;;;4.18;;
66095;SDS011;53861;53.422;14.530;2023-03-11T14:56:14;10.00;;;4.43;;
66095;SDS011;53861;53.422;14.530;2023-03-11T14:58:48;10.38;;;4.82;;
66095;SDS011;53861;53.422;14.530;2023-03-11T15:03:55;10.38;;;4.47;;
66095;SDS011;53861;53.422;14.530;2023-03-11T15:06:27;11.13;;;4.90;;
66095;SDS011;53861;53.422;14.530;2023-03-11T15:09:05;11.23;;;5.18;;
66095;SDS011;53861;53.422;14.530;2023-03-11T15:14:24;8.57;;;4.07;;
66095;SDS011;53861;53.422;14.530;2023-03-11T15:16:52;8.85;;;3.83;;
66095;SDS011;53861;53.422;14.530;2023-03-11T15:19:34;9.15;;;3.92;;
66095;SDS011;53861;53.422;14.530;2023-03-11T15:22:06;7.95;;;3.20;;